Time;durP1;ratioP1;P1;durP2;ratioP2;P2;SDS_P1;SDS_P2;PMS_P1;PMS_P2;Temp;Humidity;BMP_temperature;BMP_pressure;BME280_temperature;BME280_humidity;BME280_pressure;Samples;Min_cycle;Max_cycle;Signal;HPM_P1;HPM_P2
2022/06/14 00:01:05;;;;;;;10.73;4.00;;;10.70;99.90;;;;;;4777487;29;20055;-86
2022/06/14 00:03:43;;;;;;;9.95;4.43;;;10.60;99.90;;;;;;4779394;29;20583;-87
2022/06/14 00:06:18;;;;;;;12.35;3.70;;;10.60;99.90;;;;;;4777628;29;20551;-86
2022/06/14 00:09:07;;;;;;;14.30;4.05;;;10.50;99.90;;;;;;4788881;29;20124;-85
2022/06/14 00:11:43;;;;;;;11.98;4.28;;;10.50;99.90;;;;;;4791730;29;20149;-87
2022/06/14 00:14:29;;;;;;;9.90;3.63;;;10.40;99.90;;;;;;4781523;29;20050;-86
2022/06/14 00:17:13;;;;;;;11.68;3.60;;;10.60;99.90;;;;;;4778913;29;20055;-86
2022/06/14 00:20:10;;;;;;;11.23;3.63;;;11.60;99.90;;;;;;4777892;29;20078;-87
2022/06/14 00:22:53;;;;;;;10.13;3.42;;;11.40;99.90;;;;;;4782771;29;20050;-85
2022/06/14 00:25:39;;;;;;;7.93;3.35;;;9.70;99.90;;;;;;4803536;29;20061;-86
2022/06/14 00:28:16;;;;;;;15.27;4.40;;;9.80;99.90;;;;;;4780668;29;20116;-87
2022/06/14 00:31:39;;;;;;;;;;;;;;;;;;;;;
2022/06/14 00:34:59;;;;;;;6.35;3.58;;;10.50;99.90;;;;;;4797706;29;20047;-87
2022/06/14 00:37:42;;;;;;;12.05;3.35;;;10.50;99.90;;;;;;4778510;29;20058;-87
2022/06/14 00:40:14;;;;;;;7.75;3.35;;;10.10;99.90;;;;;;4776724;29;20091;-87
2022/06/14 00:43:06;;;;;;;12.20;3.67;;;10.50;99.90;;;;;;4775460;29;20141;-87
2022/06/14 00:46:07;;;;;;;6.93;3.15;;;9.90;99.90;;;;;;4776429;29;20500;-88
2022/06/14 00:49:00;;;;;;;12.05;3.58;;;10.60;99.90;;;;;;4798224;29;20099;-86
2022/06/14 00:52:03;;;;;;;8.52;3.28;;;10.50;99.90;;;;;;4775286;29;20058;-87
2022/06/14 00:54:42;;;;;;;9.10;3.28;;;10.00;99.90;;;;;;4788697;29;20073;-86
2022/06/14 00:57:26;;;;;;;7.32;3.60;;;10.60;99.90;;;;;;4790417;29;20397;-87
2022/06/14 01:00:07;;;;;;;11.27;3.78;;;10.50;99.90;;;;;;4792883;29;20180;-85
2022/06/14 01:03:07;;;;;;;10.43;3.42;;;10.70;99.90;;;;;;4794112;29;20694;-86
2022/06/14 01:06:16;;;;;;;12.13;4.28;;;10.70;99.90;;;;;;4790769;29;20051;-86
2022/06/14 01:09:09;;;;;;;14.18;4.00;;;10.80;99.90;;;;;;4784176;29;20135;-87
2022/06/14 01:11:53;;;;;;;11.23;3.50;;;10.70;99.90;;;;;;4792419;29;20457;-87
2022/06/14 01:14:50;;;;;;;8.10;3.53;;;10.20;99.90;;;;;;4793549;29;20069;-86
2022/06/14 01:17:19;;;;;;;11.45;4.40;;;10.60;99.90;;;;;;4807096;29;20110;-87
2022/06/14 01:20:01;;;;;;;8.15;3.38;;;9.80;99.90;;;;;;4783367;29;20070;-87
2022/06/14 01:22:37;;;;;;;8.65;3.53;;;10.30;99.90;;;;;;4781158;29;20099;-87
2022/06/14 01:25:10;;;;;;;11.65;4.13;;;10.40;99.90;;;;;;4794462;29;20103;-86
2022/06/14 01:27:40;;;;;;;12.68;4.15;;;10.60;99.90;;;;;;4807619;29;20057;-87
2022/06/14 01:30:12;;;;;;;11.15;3.92;;;10.60;99.90;;;;;;4812063;29;20199;-86
2022/06/14 01:33:07;;;;;;;8.18;4.07;;;10.60;99.90;;;;;;4827816;29;20411;-87
2022/06/14 01:35:38;;;;;;;10.18;4.28;;;10.60;99.90;;;;;;4807797;29;20403;-87
2022/06/14 01:38:14;;;;;;;9.65;4.50;;;10.60;99.90;;;;;;4812404;29;20511;-87
2022/06/14 01:41:02;;;;;;;10.35;4.30;;;10.50;99.90;;;;;;4796233;29;20085;-87
2022/06/14 01:43:52;;;;;;;10.63;4.43;;;10.50;99.90;;;;;;4794295;29;20061;-87
2022/06/14 01:46:26;;;;;;;11.80;4.63;;;10.50;99.90;;;;;;4794544;29;20832;-86
2022/06/14 01:52:45;;;;;;;8.30;4.20;;;10.50;99.90;;;;;;4790781;29;20050;-87
2022/06/14 01:55:45;;;;;;;11.75;3.67;;;10.40;99.90;;;;;;4792790;29;20054;-86
2022/06/14 01:58:40;;;;;;;11.13;4.03;;;10.40;99.90;;;;;;4793784;29;20055;-87
2022/06/14 02:01:09;;;;;;;8.38;3.90;;;10.50;99.90;;;;;;4808623;29;20050;-86
2022/06/14 02:07:07;;;;;;;14.35;3.78;;;10.50;99.90;;;;;;4808081;29;20122;-87
2022/06/14 02:09:43;;;;;;;11.50;3.78;;;10.50;99.90;;;;;;4794236;29;20080;-87
2022/06/14 02:12:17;;;;;;;10.00;4.25;;;10.50;99.90;;;;;;4775912;29;20062;-86
2022/06/14 02:15:01;;;;;;;12.82;4.22;;;10.50;99.90;;;;;;4775958;29;20829;-87
2022/06/14 02:17:36;;;;;;;13.07;3.83;;;10.50;99.90;;;;;;4775769;29;20050;-87
2022/06/14 02:20:08;;;;;;;14.02;4.05;;;9.80;99.90;;;;;;4805373;29;20386;-88
2022/06/14 02:22:46;;;;;;;10.60;4.45;;;10.40;99.90;;;;;;4790709;29;20529;-87
2022/06/14 02:25:21;;;;;;;10.18;4.35;;;9.40;99.90;;;;;;4790011;29;20138;-87
2022/06/14 02:28:02;;;;;;;11.93;4.70;;;10.30;99.90;;;;;;4775970;29;20078;-87
2022/06/14 02:30:35;;;;;;;13.75;5.13;;;10.30;99.90;;;;;;4776898;29;20063;-87
2022/06/14 02:33:10;;;;;;;12.07;4.60;;;10.30;99.90;;;;;;4793496;29;20086;-87
2022/06/14 02:35:57;;;;;;;11.32;5.40;;;10.20;99.90;;;;;;4793878;29;20065;-87
2022/06/14 02:38:44;;;;;;;11.75;4.82;;;10.20;99.90;;;;;;4793734;29;20051;-88
2022/06/14 02:41:19;;;;;;;9.00;4.25;;;10.20;99.90;;;;;;4808055;29;20053;-88
2022/06/14 02:44:02;;;;;;;12.98;4.20;;;10.20;99.90;;;;;;4791009;29;20051;-87
2022/06/14 02:47:01;;;;;;;10.45;4.30;;;9.20;99.90;;;;;;4797705;29;20488;-87
2022/06/14 02:49:39;;;;;;;12.18;4.38;;;10.10;99.90;;;;;;4775716;29;20050;-87
2022/06/14 02:52:27;;;;;;;12.15;5.18;;;10.10;99.90;;;;;;4779587;29;20504;-88
2022/06/14 02:55:05;;;;;;;10.48;4.30;;;10.10;99.90;;;;;;4790497;29;20062;-87
2022/06/14 02:57:50;;;;;;;11.43;4.88;;;10.10;99.90;;;;;;4790435;29;20134;-87
2022/06/14 03:00:25;;;;;;;10.02;4.40;;;10.10;99.90;;;;;;4776050;29;20059;-87
2022/06/14 03:03:00;;;;;;;15.50;4.40;;;10.20;99.90;;;;;;4793080;29;20059;-88
2022/06/14 03:05:39;;;;;;;9.73;4.20;;;10.10;99.90;;;;;;4793833;29;20114;-88
2022/06/14 03:08:27;;;;;;;9.80;3.50;;;10.10;99.90;;;;;;4793364;29;20054;-87
2022/06/14 03:11:13;;;;;;;9.50;4.15;;;10.10;99.90;;;;;;4795539;29;20046;-86
2022/06/14 03:14:05;;;;;;;12.75;4.32;;;10.10;99.90;;;;;;4793978;29;20061;-86
2022/06/14 03:17:03;;;;;;;9.70;4.45;;;9.40;99.90;;;;;;4768511;29;20404;-87
2022/06/14 03:20:08;;;;;;;13.18;4.65;;;10.10;99.90;;;;;;4795477;29;20054;-87
2022/06/14 03:22:57;;;;;;;11.55;4.50;;;10.10;99.90;;;;;;4811679;29;20082;-87
2022/06/14 03:25:47;;;;;;;12.65;4.30;;;10.00;99.90;;;;;;4796616;29;20082;-87
2022/06/14 03:28:19;;;;;;;10.43;4.65;;;10.10;99.90;;;;;;4795896;29;20051;-87
2022/06/14 03:31:14;;;;;;;9.73;4.40;;;10.00;99.90;;;;;;4796037;29;20051;-87
2022/06/14 03:33:50;;;;;;;11.50;4.57;;;10.10;99.90;;;;;;4795649;29;20092;-87
2022/06/14 03:36:16;;;;;;;9.43;4.63;;;10.00;99.90;;;;;;4796300;29;20157;-87
2022/06/14 03:38:48;;;;;;;10.23;4.32;;;9.60;99.90;;;;;;4796265;29;20133;-87
2022/06/14 03:41:18;;;;;;;12.07;4.45;;;10.10;99.90;;;;;;4795962;29;20132;-87
2022/06/14 03:43:47;;;;;;;11.18;4.40;;;10.10;99.90;;;;;;4795628;29;20085;-87
2022/06/14 03:46:28;;;;;;;12.05;5.32;;;10.00;99.90;;;;;;4781304;29;20054;-85
2022/06/14 03:48:59;;;;;;;9.30;4.47;;;9.40;99.90;;;;;;4796005;29;20436;-85
2022/06/14 03:51:53;;;;;;;8.80;4.72;;;9.20;99.90;;;;;;4795729;29;20115;-88
2022/06/14 03:54:41;;;;;;;13.40;5.30;;;10.10;99.90;;;;;;4796517;29;20088;-88
2022/06/14 03:57:16;;;;;;;17.77;5.63;;;10.10;99.90;;;;;;4795527;29;20157;-87
2022/06/14 04:00:04;;;;;;;13.02;4.90;;;10.10;99.90;;;;;;4811002;29;20050;-87
2022/06/14 04:02:59;;;;;;;9.30;4.22;;;10.20;99.90;;;;;;4810820;29;20062;-87
2022/06/14 04:05:54;;;;;;;9.43;4.97;;;10.20;99.90;;;;;;4810774;29;20385;-87
2022/06/14 04:08:32;;;;;;;10.25;4.80;;;10.20;99.90;;;;;;4811418;29;20046;-87
2022/06/14 04:11:01;;;;;;;14.18;4.93;;;10.20;99.90;;;;;;4810522;29;20115;-88
2022/06/14 04:13:53;;;;;;;11.57;4.90;;;10.20;99.90;;;;;;4812564;29;20090;-89
2022/06/14 04:16:45;;;;;;;11.57;4.53;;;10.20;99.90;;;;;;4781843;29;20084;-87
2022/06/14 04:19:25;;;;;;;13.10;4.68;;;10.30;99.90;;;;;;4797689;29;20058;-87
2022/06/14 04:22:16;;;;;;;9.13;4.47;;;10.30;99.90;;;;;;4795940;29;20051;-87
2022/06/14 04:24:55;;;;;;;8.13;4.47;;;10.30;99.90;;;;;;4811312;29;20133;-87
2022/06/14 04:27:32;;;;;;;11.20;4.13;;;9.80;99.90;;;;;;4795548;29;20107;-87
2022/06/14 04:30:14;;;;;;;9.88;4.45;;;10.30;99.90;;;;;;4791312;29;20066;-87
2022/06/14 04:32:49;;;;;;;15.52;5.00;;;10.40;99.90;;;;;;4794913;29;20082;-87
2022/06/14 04:35:58;;;;;;;9.68;4.57;;;10.50;99.90;;;;;;4795635;29;20404;-88
2022/06/14 04:38:27;;;;;;;13.15;5.00;;;10.00;99.90;;;;;;4786473;29;20064;-87
2022/06/14 04:41:14;;;;;;;14.85;5.70;;;10.60;99.90;;;;;;4809697;29;20048;-87
2022/06/14 04:43:57;;;;;;;9.20;4.70;;;10.50;99.90;;;;;;4795375;29;20051;-87
2022/06/14 04:46:50;;;;;;;12.45;4.88;;;10.60;99.90;;;;;;4795095;29;20046;-87
2022/06/14 04:49:46;;;;;;;12.40;4.75;;;10.70;99.90;;;;;;4794334;29;20099;-88
2022/06/14 04:52:17;;;;;;;9.18;4.47;;;10.70;99.90;;;;;;4788677;29;20090;-88
2022/06/14 04:54:59;;;;;;;12.93;4.88;;;10.70;99.90;;;;;;4809532;29;20073;-87
2022/06/14 04:57:50;;;;;;;10.07;4.63;;;10.90;99.90;;;;;;4791013;29;20504;-85
2022/06/14 05:00:24;;;;;;;14.13;5.10;;;11.00;99.90;;;;;;4810640;29;20042;-87
2022/06/14 05:03:40;;;;;;;10.68;5.05;;;11.10;99.90;;;;;;4794476;29;20141;-87
2022/06/14 05:06:19;;;;;;;11.15;4.82;;;11.30;99.90;;;;;;4823460;29;20523;-87
2022/06/14 05:09:08;;;;;;;13.75;4.68;;;11.30;99.90;;;;;;4794915;29;20050;-87
2022/06/14 05:12:00;;;;;;;12.40;4.20;;;11.40;99.90;;;;;;4794458;29;20072;-87
2022/06/14 05:14:37;;;;;;;9.60;4.57;;;11.40;99.90;;;;;;4793873;29;20115;-87
2022/06/14 05:17:40;;;;;;;8.77;4.70;;;11.50;99.90;;;;;;4787882;29;20130;-85
2022/06/14 05:20:34;;;;;;;10.10;4.57;;;11.60;99.90;;;;;;4792966;29;20047;-87
2022/06/14 05:23:25;;;;;;;12.15;4.40;;;11.70;99.90;;;;;;4773209;29;20050;-87
2022/06/14 05:26:16;;;;;;;13.43;4.90;;;11.80;99.90;;;;;;4776854;29;20195;-87
2022/06/14 05:29:27;;;;;;;11.85;4.78;;;11.90;99.90;;;;;;4805502;29;20053;-87
2022/06/14 05:32:32;;;;;;;14.95;4.47;;;12.00;99.90;;;;;;4794983;29;20050;-85
2022/06/14 05:35:20;;;;;;;9.90;4.38;;;12.00;99.90;;;;;;4785109;29;20050;-87
2022/06/14 05:38:36;;;;;;;13.00;4.63;;;12.10;99.90;;;;;;4810364;29;20073;-86
2022/06/14 05:41:58;;;;;;;11.30;4.72;;;12.10;99.90;;;;;;4809680;29;20050;-86
2022/06/14 05:44:59;;;;;;;10.85;4.13;;;11.70;99.90;;;;;;4795255;29;20068;-87
2022/06/14 05:47:51;;;;;;;7.97;3.70;;;12.30;99.90;;;;;;4795038;29;20138;-86
2022/06/14 05:50:53;;;;;;;5.97;3.78;;;13.20;99.90;;;;;;4794361;29;20061;-87
2022/06/14 05:54:04;;;;;;;10.40;4.20;;;12.60;99.90;;;;;;4772484;30;20112;-87
2022/06/14 05:57:06;;;;;;;10.70;3.78;;;12.70;99.90;;;;;;4757309;30;20047;-86
2022/06/14 06:03:41;;;;;;;6.00;3.17;;;13.00;99.90;;;;;;4784967;29;20053;-87
2022/06/14 06:06:37;;;;;;;7.97;3.25;;;13.00;99.90;;;;;;4792550;29;20062;-86
2022/06/14 06:09:17;;;;;;;8.25;4.22;;;13.00;99.90;;;;;;4797336;29;20621;-87
2022/06/14 06:12:00;;;;;;;9.35;3.63;;;13.10;99.90;;;;;;4786159;29;20057;-87
2022/06/14 06:15:21;;;;;;;16.00;3.42;;;13.00;99.90;;;;;;4801499;29;20137;-87
2022/06/14 06:18:16;;;;;;;10.98;3.20;;;13.10;99.90;;;;;;4808235;29;20495;-86
2022/06/14 06:21:01;;;;;;;9.38;3.45;;;13.20;99.90;;;;;;4808933;29;20748;-86
2022/06/14 06:23:36;;;;;;;9.70;2.88;;;13.30;99.90;;;;;;4793032;29;20532;-86
2022/06/14 06:26:05;;;;;;;6.72;2.72;;;13.40;99.90;;;;;;4793092;29;20137;-86
2022/06/14 06:28:39;;;;;;;8.25;3.45;;;13.60;99.90;;;;;;4790271;29;20054;-86
2022/06/14 06:31:09;;;;;;;9.02;3.78;;;13.70;99.90;;;;;;4774903;29;20059;-86
2022/06/14 06:33:40;;;;;;;9.73;3.50;;;13.90;99.90;;;;;;4782116;29;20043;-85
2022/06/14 06:36:43;;;;;;;7.70;2.65;;;13.90;99.90;;;;;;4791899;29;20526;-84
2022/06/14 06:39:18;;;;;;;7.35;2.72;;;14.20;99.90;;;;;;4790032;29;20054;-88
2022/06/14 06:42:21;;;;;;;7.05;2.63;;;14.40;99.90;;;;;;4789951;29;20130;-87
2022/06/14 06:45:05;;;;;;;6.40;2.50;;;14.60;99.90;;;;;;4730114;30;20056;-87
2022/06/14 06:48:05;;;;;;;6.60;2.30;;;14.80;99.90;;;;;;4788169;29;20114;-87
2022/06/14 06:58:41;;;;;;;4.93;1.63;;;15.60;99.90;;;;;;4833500;29;20129;-87
2022/06/14 07:01:31;;;;;;;6.30;1.92;;;16.00;99.90;;;;;;4754491;29;20047;-87
2022/06/14 07:04:20;;;;;;;7.10;1.63;;;16.20;99.90;;;;;;4794403;29;20191;-87
2022/06/14 07:07:08;;;;;;;4.70;1.63;;;16.40;99.90;;;;;;4793695;29;20065;-88
2022/06/14 07:10:09;;;;;;;3.97;1.40;;;15.80;99.90;;;;;;4809280;29;20058;-88
2022/06/14 07:12:44;;;;;;;4.07;1.75;;;15.80;99.90;;;;;;4796874;29;20137;-87
2022/06/14 07:19:17;;;;;;;4.78;1.30;;;16.40;99.90;;;;;;4805341;29;20167;-88
2022/06/14 07:22:23;;;;;;;5.18;1.63;;;16.30;99.90;;;;;;4812296;29;20138;-88
2022/06/14 07:25:04;;;;;;;5.65;1.50;;;16.00;99.90;;;;;;4796708;29;20125;-86
2022/06/14 07:28:03;;;;;;;5.38;1.40;;;16.30;99.90;;;;;;4796914;29;20046;-86
2022/06/14 07:30:35;;;;;;;4.60;1.67;;;16.10;99.90;;;;;;4792528;29;20051;-88
2022/06/14 07:33:09;;;;;;;5.28;1.70;;;16.50;99.90;;;;;;4777893;29;20047;-87
2022/06/14 07:36:20;;;;;;;3.67;1.48;;;16.80;99.90;;;;;;4777313;29;20798;-87
2022/06/14 07:38:49;;;;;;;4.60;1.58;;;16.10;99.90;;;;;;4761714;29;20207;-87
2022/06/14 07:41:26;;;;;;;10.18;2.22;;;16.50;99.90;;;;;;4792296;29;20093;-85
2022/06/14 07:44:11;;;;;;;7.70;1.95;;;16.70;99.90;;;;;;4792913;29;20047;-85
2022/06/14 07:47:05;;;;;;;3.90;1.40;;;16.70;99.90;;;;;;4791665;29;20051;-87
2022/06/14 07:49:34;;;;;;;3.85;1.23;;;17.00;99.90;;;;;;4827018;29;20053;-87
2022/06/14 07:52:23;;;;;;;4.55;1.60;;;17.20;99.90;;;;;;4826259;29;20053;-86
2022/06/14 07:55:41;;;;;;;5.85;1.80;;;16.90;99.90;;;;;;4827160;29;20125;-86
2022/06/14 07:58:13;;;;;;;4.78;1.58;;;17.00;99.90;;;;;;4813177;29;20064;-86
2022/06/14 08:03:32;;;;;;;4.50;1.95;;;16.90;99.90;;;;;;4808266;29;20112;-86
2022/06/14 08:06:06;;;;;;;4.57;1.30;;;16.60;99.90;;;;;;4811051;29;20158;-86
2022/06/14 08:08:37;;;;;;;3.33;1.40;;;16.90;99.90;;;;;;4794720;29;20122;-85
2022/06/14 08:11:30;;;;;;;4.93;1.48;;;16.80;99.90;;;;;;4794434;29;20404;-86
2022/06/14 08:14:10;;;;;;;3.40;1.50;;;17.40;99.90;;;;;;4794686;29;20111;-88
2022/06/14 08:16:38;;;;;;;3.83;1.50;;;17.50;99.90;;;;;;4795635;29;20066;-88
2022/06/14 08:19:25;;;;;;;5.63;1.42;;;17.40;99.90;;;;;;4795080;29;20062;-86
2022/06/14 08:22:05;;;;;;;2.92;1.27;;;17.50;99.90;;;;;;4795796;29;20054;-86
2022/06/14 08:24:56;;;;;;;3.33;1.60;;;18.20;99.90;;;;;;4794533;29;20089;-87
2022/06/14 08:27:29;;;;;;;4.03;1.38;;;18.10;99.90;;;;;;4794555;29;20069;-86
2022/06/14 08:30:11;;;;;;;4.15;1.42;;;17.80;99.90;;;;;;4794873;29;20058;-87
2022/06/14 08:32:47;;;;;;;2.85;1.42;;;17.70;99.90;;;;;;4795034;29;20127;-87
2022/06/14 08:35:35;;;;;;;2.40;1.30;;;17.40;99.90;;;;;;4794618;29;20381;-86
2022/06/14 08:38:22;;;;;;;7.80;1.98;;;17.30;99.90;;;;;;4795012;29;20105;-87
2022/06/14 08:40:48;;;;;;;4.03;1.60;;;17.60;99.90;;;;;;4809677;29;20157;-86
2022/06/14 08:43:34;;;;;;;3.83;1.67;;;17.70;99.90;;;;;;4808503;29;20047;-86
2022/06/14 08:46:19;;;;;;;4.35;1.35;;;17.80;99.90;;;;;;4794415;29;20050;-86
2022/06/14 08:49:03;;;;;;;;;;;17.90;99.90;;;;;;4809368;29;20054;-86
2022/06/14 08:51:59;;;;;;;3.42;1.25;;;17.80;99.90;;;;;;4809215;29;19931;-86
2022/06/14 08:54:51;;;;;;;3.05;1.25;;;17.90;99.90;;;;;;4810037;29;20054;-86
2022/06/14 08:57:49;;;;;;;2.20;1.10;;;18.40;99.90;;;;;;4808465;29;20050;-86
2022/06/14 09:01:05;;;;;;;2.05;1.20;;;18.40;99.90;;;;;;4754107;30;20656;-87
2022/06/14 09:04:10;;;;;;;3.40;1.17;;;19.30;99.90;;;;;;4734822;30;20123;-86
2022/06/14 09:07:22;;;;;;;2.17;1.00;;;19.00;99.90;;;;;;4755677;30;20055;-86
2022/06/14 09:10:03;;;;;;;2.40;1.13;;;18.90;99.90;;;;;;4794403;29;20078;-87
2022/06/14 09:13:36;;;;;;;;;;;;;;;;;;;;;
2022/06/14 09:16:51;;;;;;;4.05;1.40;;;18.00;99.90;;;;;;4733909;30;20111;-87
2022/06/14 09:19:35;;;;;;;4.95;1.40;;;17.90;99.90;;;;;;4720115;30;20669;-87
2022/06/14 09:22:09;;;;;;;3.60;1.30;;;17.70;99.90;;;;;;4720157;30;20056;-87
2022/06/14 09:25:20;;;;;;;4.28;1.77;;;18.00;99.90;;;;;;4719342;30;20514;-87
2022/06/14 09:28:09;;;;;;;3.88;1.27;;;18.20;99.90;;;;;;4703775;30;20107;-87
2022/06/14 09:30:59;;;;;;;2.35;1.45;;;19.00;99.90;;;;;;4735856;30;20056;-86
2022/06/14 09:33:46;;;;;;;3.45;1.20;;;19.20;99.90;;;;;;4736061;30;20443;-86
2022/06/14 09:36:55;;;;;;;3.55;1.23;;;19.60;99.90;;;;;;4745900;29;20046;-86
2022/06/14 09:39:58;;;;;;;3.65;1.40;;;20.20;99.90;;;;;;4800874;29;20059;-86
2022/06/14 09:43:24;;;;;;;;;;;;;;;;;;;;;
2022/06/14 09:46:17;;;;;;;2.00;1.10;;;19.70;99.90;;;;;;4771866;30;20444;-86
2022/06/14 09:49:15;;;;;;;2.40;1.00;;;19.80;99.90;;;;;;4756132;30;20056;-87
2022/06/14 09:52:00;;;;;;;2.42;1.20;;;19.60;99.90;;;;;;4756679;30;20505;-86
2022/06/14 09:55:13;;;;;;;3.22;1.15;;;19.20;99.90;;;;;;4785742;30;20107;-86
2022/06/14 09:58:06;;;;;;;2.58;1.20;;;19.20;99.90;;;;;;4756359;30;20098;-87
2022/06/14 10:01:16;;;;;;;4.43;1.48;;;19.60;99.90;;;;;;4773755;29;20046;-87
2022/06/14 10:04:13;;;;;;;2.85;1.33;;;19.60;99.90;;;;;;4698318;30;20068;-86
2022/06/14 10:06:59;;;;;;;1.77;1.13;;;19.30;99.90;;;;;;4708468;29;20056;-86
2022/06/14 10:09:56;;;;;;;;;;;;;;;;;;;;;
2022/06/14 10:16:41;;;;;;;2.35;1.30;;;18.50;99.90;;;;;;4733047;30;20099;-87
2022/06/14 10:33:32;;;;;;;5.32;1.10;;;18.40;99.90;;;;;;4822278;29;20187;-86
2022/06/14 10:44:03;;;;;;;4.20;1.38;;;18.30;99.90;;;;;;4824982;29;20082;-86
2022/06/14 10:47:37;;;;;;;2.90;1.33;;;18.10;99.90;;;;;;4795898;29;20092;-86
2022/06/14 10:51:09;;;;;;;2.53;1.30;;;18.30;99.90;;;;;;4807095;29;20149;-85
2022/06/14 10:54:04;;;;;;;2.15;1.10;;;17.90;99.90;;;;;;4798927;29;20065;-86
2022/06/14 10:56:56;;;;;;;4.07;1.30;;;18.00;99.90;;;;;;4808624;29;20157;-87
2022/06/14 10:59:53;;;;;;;2.70;1.20;;;17.70;99.90;;;;;;4794787;29;20054;-86
2022/06/14 11:03:17;;;;;;;3.33;1.40;;;18.10;99.90;;;;;;4794966;29;20110;-86
2022/06/14 11:06:10;;;;;;;3.17;1.33;;;18.10;99.90;;;;;;4788062;29;20057;-86
2022/06/14 11:09:20;;;;;;;2.25;1.20;;;18.20;99.90;;;;;;4809818;29;20054;-86
2022/06/14 11:12:29;;;;;;;2.35;1.20;;;18.20;99.90;;;;;;4795456;29;20054;-88
2022/06/14 11:15:14;;;;;;;3.63;1.10;;;18.20;99.90;;;;;;4809774;29;20058;-87
2022/06/14 11:18:05;;;;;;;3.50;1.38;;;18.30;99.90;;;;;;4794260;29;20050;-86
2022/06/14 11:20:42;;;;;;;2.70;1.40;;;18.20;99.90;;;;;;4795568;29;20146;-86
2022/06/14 11:23:28;;;;;;;1.55;1.20;;;18.30;99.90;;;;;;4798151;29;20046;-86
2022/06/14 11:26:40;;;;;;;3.00;1.60;;;17.40;99.90;;;;;;4796152;29;20058;-86
2022/06/14 11:29:51;;;;;;;4.00;1.88;;;17.70;99.90;;;;;;4797490;29;20170;-87
2022/06/14 11:32:44;;;;;;;5.70;1.73;;;17.50;99.90;;;;;;4796696;29;20050;-86
2022/06/14 11:35:45;;;;;;;3.88;1.60;;;17.50;99.90;;;;;;4796012;29;20403;-87
2022/06/14 11:38:20;;;;;;;7.63;2.10;;;17.40;99.90;;;;;;4800444;29;20048;-86
2022/06/14 11:40:58;;;;;;;4.28;1.90;;;17.30;99.90;;;;;;4830202;29;20558;-87
2022/06/14 11:44:03;;;;;;;3.83;1.70;;;16.90;99.90;;;;;;4815549;29;20050;-86
2022/06/14 11:46:45;;;;;;;4.18;1.80;;;17.20;99.90;;;;;;4830499;29;20407;-86
2022/06/14 11:49:36;;;;;;;3.75;2.00;;;17.20;99.90;;;;;;4829701;29;20057;-86
2022/06/14 11:52:18;;;;;;;3.78;1.70;;;17.10;99.90;;;;;;4812982;29;20049;-86
2022/06/14 11:55:19;;;;;;;3.38;1.52;;;17.10;99.90;;;;;;4829134;29;20053;-85
2022/06/14 12:01:38;;;;;;;4.15;1.75;;;17.10;99.90;;;;;;4793506;29;20089;-86
2022/06/14 12:04:33;;;;;;;4.45;1.67;;;17.30;99.90;;;;;;4778786;29;20491;-86
2022/06/14 12:07:27;;;;;;;6.25;1.88;;;17.40;99.90;;;;;;4794997;29;20142;-86
2022/06/14 12:09:59;;;;;;;3.47;1.40;;;17.50;99.90;;;;;;4794293;29;20062;-86
2022/06/14 12:12:43;;;;;;;6.70;1.70;;;17.40;99.90;;;;;;4794539;29;20166;-86
2022/06/14 12:15:17;;;;;;;4.68;1.90;;;17.30;99.90;;;;;;4793394;29;20050;-86
2022/06/14 12:18:07;;;;;;;4.25;1.77;;;17.80;99.90;;;;;;4793608;29;20427;-86
2022/06/14 12:20:59;;;;;;;4.28;1.67;;;17.60;99.90;;;;;;4778325;29;20047;-86
2022/06/14 12:23:37;;;;;;;3.47;1.67;;;18.40;99.90;;;;;;4793324;29;20080;-86
2022/06/14 12:26:37;;;;;;;5.57;1.80;;;18.50;99.90;;;;;;4793621;29;20063;-87
2022/06/14 12:29:25;;;;;;;3.60;1.73;;;18.50;99.90;;;;;;4779431;29;20559;-86
2022/06/14 12:32:36;;;;;;;3.10;1.50;;;18.80;99.90;;;;;;4778759;29;20059;-86
2022/06/14 12:35:16;;;;;;;2.78;1.50;;;19.00;99.90;;;;;;4779377;29;20508;-86
2022/06/14 12:38:00;;;;;;;4.47;1.77;;;19.20;99.90;;;;;;4778908;29;20047;-86
2022/06/14 12:41:08;;;;;;;3.97;1.70;;;19.70;99.90;;;;;;4778110;29;20054;-86
2022/06/14 12:44:07;;;;;;;2.45;1.70;;;20.50;99.90;;;;;;4763120;29;20051;-87
2022/06/14 12:46:42;;;;;;;2.50;1.40;;;21.00;99.90;;;;;;4792487;29;20196;-87
2022/06/14 12:49:26;;;;;;;3.10;1.50;;;20.80;99.90;;;;;;4784314;29;20172;-86
2022/06/14 12:52:09;;;;;;;4.72;1.67;;;20.70;99.90;;;;;;4812418;29;20149;-86
2022/06/14 12:54:45;;;;;;;3.83;1.52;;;20.10;99.90;;;;;;4812086;29;20050;-86
2022/06/14 12:57:36;;;;;;;3.25;1.35;;;20.00;99.90;;;;;;4827316;29;20091;-86
2022/06/14 13:00:40;;;;;;;2.42;1.35;;;19.90;99.90;;;;;;4826994;29;20053;-86
2022/06/14 13:03:30;;;;;;;2.80;1.92;;;20.10;99.90;;;;;;4791758;29;20064;-85
2022/06/14 13:06:12;;;;;;;3.33;1.70;;;20.10;99.90;;;;;;4828068;29;20440;-86
2022/06/14 13:08:48;;;;;;;3.60;1.50;;;20.00;99.90;;;;;;4828762;29;20058;-85
2022/06/14 13:11:30;;;;;;;2.97;1.50;;;20.10;99.90;;;;;;4819139;29;20058;-86
2022/06/14 13:14:15;;;;;;;5.05;1.80;;;20.30;99.90;;;;;;4793903;29;20428;-86
2022/06/14 13:17:08;;;;;;;3.10;1.60;;;20.30;99.90;;;;;;4793990;29;20145;-85
2022/06/14 13:19:46;;;;;;;3.80;1.98;;;20.10;99.90;;;;;;4794370;29;20043;-86
2022/06/14 13:22:21;;;;;;;3.05;1.88;;;20.10;99.90;;;;;;4793850;29;20046;-86
2022/06/14 13:25:08;;;;;;;3.88;2.30;;;20.60;99.90;;;;;;4793688;29;20046;-86
2022/06/14 13:27:46;;;;;;;2.83;1.60;;;20.20;99.90;;;;;;4792975;29;20169;-86
2022/06/14 13:30:26;;;;;;;4.63;1.70;;;20.50;99.90;;;;;;4793613;29;20141;-85
2022/06/14 13:32:58;;;;;;;4.78;2.00;;;21.20;99.90;;;;;;4793412;29;20085;-85
2022/06/14 13:35:59;;;;;;;4.68;1.80;;;20.80;99.90;;;;;;4792783;29;20061;-86
2022/06/14 13:38:50;;;;;;;4.78;1.80;;;21.20;99.90;;;;;;4793636;29;20058;-87
2022/06/14 13:41:25;;;;;;;2.53;1.85;;;21.30;99.90;;;;;;4793116;29;20133;-86
2022/06/14 13:43:58;;;;;;;4.95;1.60;;;21.20;99.90;;;;;;4793111;29;20047;-86
2022/06/14 13:46:48;;;;;;;4.70;1.80;;;21.30;99.90;;;;;;4793238;29;20054;-87
2022/06/14 13:49:41;;;;;;;3.13;1.60;;;20.90;99.90;;;;;;4794113;29;20054;-86
2022/06/14 13:52:16;;;;;;;3.25;2.08;;;19.70;99.90;;;;;;4793308;29;20118;-86
2022/06/14 13:55:19;;;;;;;3.22;2.00;;;20.10;99.90;;;;;;4794552;29;20050;-86
2022/06/14 13:58:01;;;;;;;4.90;1.77;;;20.10;99.90;;;;;;4794231;29;20148;-86
2022/06/14 14:01:01;;;;;;;4.25;1.70;;;19.80;99.90;;;;;;4792861;29;20061;-86
2022/06/14 14:03:49;;;;;;;6.13;1.90;;;19.90;99.90;;;;;;4764845;29;20095;-86
2022/06/14 14:06:38;;;;;;;3.75;1.52;;;19.90;99.90;;;;;;4793429;29;20050;-87
2022/06/14 14:09:26;;;;;;;3.20;1.70;;;19.70;99.90;;;;;;4793099;29;20135;-86
2022/06/14 14:12:21;;;;;;;3.42;1.67;;;19.70;99.90;;;;;;4793134;29;20065;-86
2022/06/14 14:18:18;;;;;;;3.33;1.90;;;19.30;99.90;;;;;;4828903;29;20053;-86
2022/06/14 14:21:17;;;;;;;4.97;2.10;;;19.10;99.90;;;;;;4841653;29;20137;-87
2022/06/14 14:24:13;;;;;;;3.38;1.73;;;19.30;99.90;;;;;;4826043;29;20046;-87
2022/06/14 14:27:03;;;;;;;7.72;2.70;;;19.40;99.90;;;;;;4825519;29;20077;-87
2022/06/14 14:29:40;;;;;;;3.83;2.00;;;19.60;99.90;;;;;;4811615;29;20392;-87
2022/06/14 14:32:32;;;;;;;5.00;2.30;;;19.80;99.90;;;;;;4813868;29;20094;-85
2022/06/14 14:35:38;;;;;;;4.07;2.10;;;19.80;99.90;;;;;;4812998;29;20054;-86
2022/06/14 14:38:19;;;;;;;3.78;1.80;;;19.90;99.90;;;;;;4829077;29;20053;-86
2022/06/14 14:44:27;;;;;;;4.38;2.03;;;19.80;99.90;;;;;;4828176;29;20157;-86
2022/06/14 14:47:20;;;;;;;8.63;2.42;;;19.70;99.90;;;;;;4827807;29;20048;-87
2022/06/14 14:53:40;;;;;;;3.72;1.67;;;20.00;99.90;;;;;;4827740;29;20054;-87
2022/06/14 14:56:49;;;;;;;4.05;2.42;;;19.30;99.90;;;;;;4794049;29;20570;-86
2022/06/14 14:59:33;;;;;;;4.18;1.92;;;19.20;99.90;;;;;;4826669;29;20060;-87
2022/06/14 15:05:48;;;;;;;4.88;1.95;;;19.80;99.90;;;;;;4826027;29;20067;-87
2022/06/14 15:08:21;;;;;;;3.40;1.80;;;19.70;99.90;;;;;;4811154;29;20057;-85
2022/06/14 15:11:01;;;;;;;3.47;1.85;;;19.60;99.90;;;;;;4826021;29;20503;-84
2022/06/14 15:13:45;;;;;;;4.82;2.28;;;19.70;99.90;;;;;;4812288;29;20050;-87
2022/06/14 15:16:35;;;;;;;7.80;1.90;;;19.60;99.90;;;;;;4828910;29;20050;-87
2022/06/14 15:21:53;;;;;;;6.05;2.40;;;19.40;99.90;;;;;;4828323;29;20050;-87
2022/06/14 15:24:28;;;;;;;3.38;2.00;;;19.20;99.90;;;;;;4814029;29;20078;-87
2022/06/14 15:27:07;;;;;;;5.43;2.60;;;18.90;99.90;;;;;;4814942;29;20132;-86
2022/06/14 15:29:48;;;;;;;2.85;1.90;;;19.50;99.90;;;;;;4830028;29;20555;-87
2022/06/14 15:32:25;;;;;;;3.97;2.08;;;19.50;99.90;;;;;;4814598;29;20054;-87
2022/06/14 15:34:54;;;;;;;4.68;2.45;;;19.40;99.90;;;;;;4814627;29;20050;-87
2022/06/14 15:37:33;;;;;;;5.88;1.90;;;19.70;99.90;;;;;;4830011;29;20046;-87
2022/06/14 15:40:20;;;;;;;2.92;2.00;;;19.60;99.90;;;;;;4814804;29;20185;-87
2022/06/14 15:42:46;;;;;;;4.88;1.90;;;19.60;99.90;;;;;;4814978;29;20377;-87
2022/06/14 15:45:26;;;;;;;3.70;1.90;;;19.60;99.90;;;;;;4829943;29;20053;-87